createdAt,value
2023-02-11T00:02:23.624Z,-0.50
2023-02-11T00:04:51.345Z,-0.44
2023-02-11T00:07:19.114Z,-0.58
2023-02-11T00:09:46.809Z,-0.57
2023-02-11T00:12:19.508Z,-0.21
2023-02-11T00:14:47.798Z,-0.39
2023-02-11T00:17:15.852Z,-0.80
2023-02-11T00:19:54.216Z,-0.31
2023-02-11T00:22:21.965Z,0.09
2023-02-11T00:24:49.776Z,-0.18
2023-02-11T00:27:17.532Z,-0.03
2023-02-11T00:29:46.255Z,-0.13
2023-02-11T00:32:14.216Z,-0.45
2023-02-11T00:34:41.998Z,-0.66
2023-02-11T00:37:10.252Z,-0.50
2023-02-11T00:39:45.576Z,-0.27
2023-02-11T00:42:16.322Z,-0.26
2023-02-11T00:44:46.037Z,-0.27
2023-02-11T00:47:15.700Z,-0.45
2023-02-11T00:49:47.272Z,-0.60
2023-02-11T00:52:15.010Z,-0.18
2023-02-11T00:54:43.694Z,0.12
2023-02-11T00:57:11.469Z,0.16
2023-02-11T00:59:39.328Z,0.07
2023-02-11T01:02:07.106Z,-0.32
2023-02-11T01:04:34.897Z,-0.23
2023-02-11T01:07:02.792Z,-0.23
2023-02-11T01:09:30.885Z,-0.02
2023-02-11T01:11:59.655Z,0.60
2023-02-11T01:14:27.382Z,0.58
2023-02-11T01:16:55.128Z,0.60
2023-02-11T01:19:26.684Z,0.83
2023-02-11T01:22:02.094Z,0.47
2023-02-11T01:24:32.206Z,0.74
2023-02-11T01:27:00.594Z,0.04
2023-02-11T01:29:28.247Z,-0.01
2023-02-11T01:32:00.025Z,-0.03
2023-02-11T01:34:30.709Z,-0.12
2023-02-11T01:36:59.602Z,0.04
2023-02-11T01:39:32.587Z,0.52
2023-02-11T01:42:01.255Z,0.41
2023-02-11T01:44:40.292Z,0.15
2023-02-11T01:47:08.170Z,-0.02
2023-02-11T01:49:40.212Z,0.40
2023-02-11T01:52:20.282Z,0.39
2023-02-11T01:55:12.770Z,0.13
2023-02-11T01:57:45.903Z,0.27
2023-02-11T02:00:27.130Z,0.14
2023-02-11T02:03:08.103Z,-0.28
2023-02-11T02:06:02.394Z,0.13
2023-02-11T02:08:35.133Z,0.04
2023-02-11T02:11:04.020Z,-0.03
2023-02-11T02:13:36.981Z,0.11
2023-02-11T02:16:15.736Z,0.77
2023-02-11T02:19:38.061Z,0.13
2023-02-11T02:22:42.033Z,0.30
2023-02-11T02:25:58.221Z,0.41
2023-02-11T02:29:20.025Z,0.58
2023-02-11T02:32:12.511Z,0.17
2023-02-11T02:34:48.988Z,0.62
2023-02-11T02:37:31.408Z,0.56
2023-02-11T02:40:18.056Z,0.41
2023-02-11T02:42:47.306Z,0.37
2023-02-11T02:45:19.506Z,0.10
2023-02-11T02:47:47.280Z,0.19
2023-02-11T02:50:40.764Z,0.45
2023-02-11T02:57:28.695Z,-147.18
2023-02-11T03:04:21.058Z,-147.18
2023-02-11T03:11:08.166Z,-147.18
2023-02-11T03:17:37.530Z,-147.18
2023-02-11T03:24:16.420Z,-147.18
2023-02-11T03:29:27.177Z,0.45
2023-02-11T03:36:21.098Z,-147.18
2023-02-11T03:43:04.056Z,-147.18
2023-02-11T03:45:31.923Z,1.31
2023-02-11T03:48:14.776Z,1.08
2023-02-11T03:50:50.357Z,1.28
2023-02-11T03:53:20.516Z,1.18
2023-02-11T03:55:56.117Z,1.19
2023-02-11T03:58:24.038Z,1.37
2023-02-11T04:00:52.203Z,1.17
2023-02-11T04:03:20.054Z,1.69
2023-02-11T04:05:48.285Z,1.81
2023-02-11T04:08:18.464Z,1.64
2023-02-11T04:10:46.390Z,1.46
2023-02-11T04:13:15.161Z,2.29
2023-02-11T04:19:10.449Z,-147.18
2023-02-11T04:25:53.454Z,-147.18
2023-02-11T04:32:28.351Z,-147.18
2023-02-11T04:39:16.241Z,-147.18
2023-02-11T04:45:41.317Z,-147.18
2023-02-11T04:52:02.670Z,-147.18
2023-02-11T04:54:32.226Z,2.19
2023-02-11T04:56:59.952Z,2.01
2023-02-11T04:59:27.736Z,2.32
2023-02-11T05:01:55.870Z,2.20
2023-02-11T05:04:35.492Z,2.52
2023-02-11T05:07:03.261Z,2.44
2023-02-11T05:09:35.580Z,2.17
2023-02-11T05:12:03.526Z,2.23
2023-02-11T05:14:31.281Z,1.64
2023-02-11T05:17:08.994Z,1.87
2023-02-11T05:19:36.700Z,1.89
2023-02-11T05:22:04.472Z,1.53
2023-02-11T05:27:24.671Z,1.53
2023-02-11T05:29:55.872Z,1.39
2023-02-11T05:32:30.780Z,1.28
2023-02-11T05:35:01.026Z,1.55
2023-02-11T05:37:28.963Z,1.74
2023-02-11T05:39:59.180Z,1.34
2023-02-11T05:42:26.998Z,1.55
2023-02-11T05:44:59.793Z,1.56
2023-02-11T05:47:30.280Z,1.74
2023-02-11T05:50:02.377Z,1.56
2023-02-11T05:52:42.219Z,1.62
2023-02-11T05:55:10.682Z,1.32
2023-02-11T05:57:45.438Z,1.52
2023-02-11T06:00:19.427Z,1.26
2023-02-11T06:02:47.042Z,1.40
2023-02-11T06:09:55.637Z,-147.18
2023-02-11T06:16:29.672Z,-147.18
2023-02-11T06:23:14.974Z,-147.18
2023-02-11T06:28:36.029Z,-147.18
2023-02-11T06:31:10.029Z,2.31
2023-02-11T06:33:51.908Z,2.15
2023-02-11T06:36:22.134Z,1.91
2023-02-11T06:38:50.085Z,1.97
2023-02-11T06:41:22.094Z,2.00
2023-02-11T06:43:57.247Z,2.02
2023-02-11T06:46:25.119Z,1.96
2023-02-11T06:48:56.150Z,2.45
2023-02-11T06:51:28.373Z,1.72
2023-02-11T06:53:56.252Z,2.16
2023-02-11T06:56:27.543Z,2.20
2023-02-11T06:58:58.138Z,1.84
2023-02-11T07:01:29.189Z,2.11
2023-02-11T07:04:09.254Z,2.27
2023-02-11T07:06:40.034Z,1.93
2023-02-11T07:09:08.293Z,2.19
2023-02-11T07:11:38.961Z,2.33
2023-02-11T07:14:10.714Z,2.23
2023-02-11T07:16:48.109Z,1.54
2023-02-11T07:19:36.771Z,1.87
2023-02-11T07:22:16.374Z,1.82
2023-02-11T07:24:49.229Z,2.30
2023-02-11T07:27:17.015Z,2.67
2023-02-11T07:29:48.676Z,2.42
2023-02-11T07:32:19.806Z,2.56
2023-02-11T07:34:50.636Z,1.87
2023-02-11T07:37:18.851Z,2.55
2023-02-11T07:40:38.712Z,2.37
2023-02-11T07:43:00.922Z,1.80
2023-02-11T07:45:50.054Z,2.26
2023-02-11T07:48:18.613Z,2.01
2023-02-11T07:50:49.539Z,2.10
2023-02-11T07:53:17.778Z,2.01
2023-02-11T07:55:58.509Z,1.55
2023-02-11T07:58:46.448Z,1.67
2023-02-11T08:01:38.554Z,1.93
2023-02-11T08:10:19.138Z,1.33
2023-02-11T08:13:05.323Z,1.55
2023-02-11T08:16:26.928Z,1.57
2023-02-11T08:19:01.992Z,1.63
2023-02-11T08:22:10.019Z,1.68
2023-02-11T08:25:07.955Z,1.56
2023-02-11T08:27:40.057Z,1.31
2023-02-11T08:30:30.455Z,1.60
2023-02-11T08:32:59.206Z,2.02
2023-02-11T08:35:29.372Z,1.82
2023-02-11T08:38:17.344Z,1.69
2023-02-11T08:44:49.150Z,-147.18
2023-02-11T09:04:59.613Z,1.69
2023-02-11T09:07:36.193Z,2.83
2023-02-11T09:10:07.064Z,2.78
2023-02-11T09:12:38.491Z,3.01
2023-02-11T09:19:37.044Z,-147.18
2023-02-11T09:22:19.467Z,2.91
2023-02-11T09:25:07.188Z,2.47
2023-02-11T09:27:48.718Z,2.26
2023-02-11T09:30:20.731Z,2.08
2023-02-11T09:33:37.603Z,2.14
2023-02-11T09:36:58.465Z,2.22
2023-02-11T09:39:23.710Z,2.55
2023-02-11T09:42:19.450Z,3.00
2023-02-11T09:45:56.751Z,2.48
